x

Buoy M01 - Jordan Basin (44037) Wave Buoy

8:04am - Wed 13th Dec 2017 All times are EST. -5 hours from GMT.

  • Sig Wave height 6.9ft
  • Peak Period 5s
  • Wind
    25mph, 29mph gusts
  • Sea Temp 49°f
  • Air Temp 41°f
  • Sea Pressure 983.2mb
  • Buoy M01 - Jordan Basin
  • Buoy M01 - Jordan Basin

More Historic Weather Station data

Upgrade to MSW Pro to gain access to the past 30 days of data for over 8000 Wavebouys and Weather Stations around the globe.

Join

Comparision Forecast

View Surf forecast
   
Wed 12/13 8:04am 7ft 5s 25 29 mph 983.2mb 49f 41f
7:04am 6ft 5s 25 31 mph 982.7mb 49f 42f
6:04am 6ft 4s 27 31 mph 982.7mb 49f 42f
5:04am 5ft 6s 22 25 mph 982.5mb 49f 44f
4:04am 5.5ft 6s 16 20 mph 982.5mb 49f 50f
3:04am 5ft 8s 11 13 mph 983.7mb 49f 50f
2:04am 6ft 6s 13 16 mph 984.5mb 49f 50f
1:04am 7ft 6s 13 16 mph 985.2mb 49f 51f
12:04am 9ft 8s 18 20 mph 987.2mb 49f 51f
Tue 12/12 11:04pm 7.5ft 8s 18 22 mph 988mb 49f 52f
10:04pm 8.5ft 8s 22 27 mph 989.5mb 49f 52f
9:04pm 9ft 6s 25 29 mph 990.6mb 49f 51f
8:04pm 7.5ft 5s 25 29 mph 991.9mb 49f 52f
7:04pm 7ft 5s 22 27 mph 993.7mb 49f 51f
6:04pm 5.5ft 5s 25 31 mph 995.4mb 49f 51f
5:04pm 5ft 5s 20 25 mph 998.4mb 49f 50f
4:04pm 4.5ft 5s 11 22 mph 1000.6mb 49f 49f
3:04pm 4.5ft 5s 20 22 mph 1001.9mb 49f 47f
2:04pm 5ft 5s 20 22 mph 1003.4mb 49f 46f
1:04pm 5ft 8s 16 20 mph 1005.2mb 49f 45f
12:04pm 5ft 8s 20 25 mph 1006.9mb 49f 45f
11:04am 4ft 5s 22 29 mph 1007.7mb 49f 44f
10:04am 5.5ft 11s 18 22 mph 1009.6mb 49f 43f
9:04am 4ft 5s 16 20 mph 1010.7mb 49f 43f
8:04am 5.5ft 11s 16 20 mph 1011.5mb 49f 43f
7:04am 6.5ft 11s 18 22 mph 1011.8mb 49f 42f
6:04am 6.5ft 11s 18 22 mph 1012.4mb 49f 39f
3:04am 4.5ft 5s 18 22 mph 1014.5mb 49f 37f
2:04am 3.5ft 5s 16 20 mph 1015.4mb 50f 36f
1:04am 4ft 5s 16 18 mph 1015.4mb 50f 36f
12:04am 3.5ft 5s 16 18 mph 1015.6mb 50f 37f
Mon 12/11 11:04pm 6ft 11s 16 20 mph 1015.9mb 50f 36f
10:04pm 6ft 11s 16 22 mph 1015.3mb 50f 37f
9:04pm 6.5ft 11s 22 27 mph 1014.9mb 50f 37f
8:04pm 4.5ft 6s 20 25 mph 1014.7mb 50f 39f
7:04pm 6ft 11s 13 20 mph 1014.7mb 50f 40f
6:04pm 6.5ft 6s 18 22 mph 1013.7mb 49f 40f
5:04pm 6ft 11s 16 20 mph 1013.1mb 49f 40f
4:04pm 7ft 11s 18 20 mph 1012.6mb 50f 40f
3:04pm 7ft 11s 18 25 mph 1011.9mb 50f 41f
2:04pm 7ft 6s 20 25 mph 1011.4mb 50f 41f
1:04pm 7ft 11s 20 25 mph 1011mb 50f 41f
12:04pm 8.5ft 11s 20 27 mph 1011.2mb 50f 41f
11:04am 7ft 6s 20 25 mph 1011.9mb 50f 41f
10:04am 8ft 11s 20 25 mph 1012.4mb 50f 42f
9:04am 7ft 11s 18 22 mph 1012.6mb 50f 41f
8:04am 8ft 11s 18 20 mph 1012.4mb 50f 39f
7:04am 8.5ft 11s 20 25 mph 1012.3mb 50f 39f
6:04am 9ft 11s 18 20 mph 1011.9mb 50f 38f
5:04am 8ft 11s 20 25 mph 1011.4mb 50f 41f
4:04am 8ft 11s 18 22 mph 1011.6mb 50f 40f
3:04am 9ft 11s 20 25 mph 1011.9mb 50f 41f
2:04am 8ft 6s 22 27 mph 1012.1mb 50f 41f
1:04am  -   -  22 27 mph 1012.1mb - 41f
12:04am 10ft 11s 22 29 mph 1012mb 50f 41f
Sun 12/10 10:04pm 10ft 11s 25 29 mph 1011.1mb 50f 41f
9:04pm 9ft 11s 25 29 mph 1010.7mb 50f 41f
8:04pm 9ft 11s 22 27 mph 1010.2mb 50f 41f
7:04pm 11ft 11s 25 31 mph 1009.7mb 50f 41f
6:04pm 11ft 11s 25 31 mph 1008.4mb 50f 41f
5:04pm 8.5ft 11s 22 27 mph 1007.4mb 50f 41f
4:04pm 8ft 11s 20 25 mph 1006.6mb 50f 40f
3:04pm 8ft 11s 16 20 mph 1005.8mb 50f 39f
2:04pm 8.5ft 11s 18 20 mph 1004.9mb 50f 39f
1:04pm 9ft 11s 20 25 mph 1004.3mb 50f 38f
12:04pm  -   -  20 27 mph 1003.7mb 50f 39f
11:04am 10ft 11s 20 25 mph 1003.2mb 50f 39f
10:04am 9ft 11s 20 25 mph 1002.8mb 50f 38f
9:04am 8ft 8s 20 27 mph 1001.6mb 50f 38f
8:04am 9.5ft 6s 20 25 mph 1000.5mb 50f 38f
7:04am 9ft 8s 20 25 mph 999.2mb 50f 38f
6:04am 9ft 8s 20 25 mph 997.8mb 50f 38f
5:04am 9.5ft 8s 22 27 mph 996.5mb 50f 38f
4:04am 10.5ft 8s 25 31 mph 995.6mb 50f 38f
3:04am 11ft 8s 25 31 mph 995.4mb 50f 39f
2:04am 11ft 8s 25 29 mph 995.1mb 50f 40f
1:04am  -   -  29 34 mph 995.3mb - 40f
12:04am 10ft 8s 29 36 mph 995.2mb 50f 41f
Sat 12/09 11:04pm 10.5ft 6s 29 36 mph 996.6mb 50f 42f
10:04pm 10ft 6s 31 38 mph 997.9mb 50f 41f
9:04pm 9ft 6s 31 36 mph 999.9mb 50f 41f
8:04pm 7ft 5s 31 36 mph - 50f 41f
7:04pm 6.5ft 5s 29 34 mph 1002.1mb 50f 41f
6:04pm 4ft 4s 27 31 mph 1005.1mb 50f 41f
5:04pm 3.5ft 4s 22 29 mph 1007.1mb 50f 40f
4:04pm 2.5ft 3s 20 22 mph 1008.2mb 50f 40f